Terminal Aerodrome Forecast
Issued by NWS

Home | Current Version | Previous Version | Text Only | Print | Product List | Glossary On
Versions: 1 2 3 4 5 6 7 8 9 10 11 12 13 14 15
000
FTUS43 KIND 011100
TAFLAF
TAF
KLAF 011126Z 0112/0212 11007KT 3SM -SN BR BKN015 OVC030
     FM011500 10011KT 1SM -SN OVC005
      TEMPO 0121/0201 1/2SM SN
     FM020200 36014G23KT 1 1/2SM -SN BLSN OVC007
     FM020600 35014G22KT 6SM -SHSN BLSN OVC020
      AMD LTD TO CLD VIS AND WIND TIL 011400=

USA.gov is the U.S. government's official web portal to all federal, state and local government web resources and services.